createdAt,value
2023-01-21T00:02:31.156Z,12.40
2023-01-21T00:05:01.466Z,13.50
2023-01-21T00:07:31.764Z,13.33
2023-01-21T00:10:02.021Z,11.83
2023-01-21T00:12:32.316Z,11.53
2023-01-21T00:15:02.579Z,10.97
2023-01-21T00:17:36.247Z,11.17
2023-01-21T00:20:07.059Z,10.02
2023-01-21T00:22:37.317Z,11.30
2023-01-21T00:25:08.193Z,11.37
2023-01-21T00:27:38.121Z,12.63
2023-01-21T00:30:10.721Z,10.63
2023-01-21T00:32:43.591Z,11.33
2023-01-21T00:35:13.858Z,9.77
2023-01-21T00:37:44.103Z,11.30
2023-01-21T00:40:15.378Z,11.63
2023-01-21T00:42:45.827Z,13.03
2023-01-21T00:45:16.132Z,12.43
2023-01-21T00:47:48.981Z,11.67
2023-01-21T00:50:19.619Z,12.87
2023-01-21T00:52:49.871Z,13.10
2023-01-21T00:55:20.268Z,13.20
2023-01-21T00:57:50.622Z,11.53
2023-01-21T01:00:21.753Z,11.37
2023-01-21T01:03:00.565Z,12.13
2023-01-21T01:05:30.902Z,9.90
2023-01-21T01:08:01.170Z,11.53
2023-01-21T01:10:31.377Z,12.07
2023-01-21T01:13:01.642Z,11.57
2023-01-21T01:15:31.855Z,11.60
2023-01-21T01:18:04.721Z,11.50
2023-01-21T01:20:34.997Z,11.43
2023-01-21T01:23:05.684Z,12.80
2023-01-21T01:25:37.995Z,12.10
2023-01-21T01:28:08.533Z,11.47
2023-01-21T01:30:39.469Z,10.27
2023-01-21T01:33:12.305Z,12.20
2023-01-21T01:35:42.614Z,12.87
2023-01-21T01:38:13.911Z,12.23
2023-01-21T01:40:45.445Z,11.00
2023-01-21T01:43:19.367Z,11.33
2023-01-21T01:45:50.834Z,12.20
2023-01-21T01:48:29.594Z,10.77
2023-01-21T01:51:00.850Z,12.20
2023-01-21T01:53:33.759Z,11.37
2023-01-21T01:56:04.708Z,12.57
2023-01-21T01:58:35.332Z,12.20
2023-01-21T02:01:05.720Z,12.17
2023-01-21T02:03:53.084Z,11.27
2023-01-21T02:06:23.563Z,11.17
2023-01-21T02:08:54.707Z,11.50
2023-01-21T02:11:25.667Z,12.57
2023-01-21T02:13:57.938Z,11.20
2023-01-21T02:16:43.553Z,11.23
2023-01-21T02:19:30.949Z,10.20
2023-01-21T02:22:06.583Z,10.87
2023-01-21T02:25:16.971Z,10.20
2023-01-21T02:27:51.025Z,9.93
2023-01-21T02:30:36.405Z,10.27
2023-01-21T02:33:18.597Z,9.00
2023-01-21T02:35:54.567Z,11.37
2023-01-21T02:38:32.540Z,11.27
2023-01-21T02:41:06.890Z,11.97
2023-01-21T02:43:43.563Z,10.45
2023-01-21T02:46:16.969Z,10.20
2023-01-21T02:48:53.479Z,10.67
2023-01-21T02:51:23.793Z,10.40
2023-01-21T02:53:54.141Z,10.47
2023-01-21T02:56:26.839Z,11.27
2023-01-21T02:58:59.362Z,10.30
2023-01-21T03:01:35.507Z,12.10
2023-01-21T03:04:15.778Z,10.17
2023-01-21T03:06:56.016Z,9.23
2023-01-21T03:09:28.859Z,11.07
2023-01-21T03:12:10.716Z,10.90
2023-01-21T03:14:55.406Z,7.83
2023-01-21T03:20:00.634Z,8.40
2023-01-21T03:22:32.061Z,10.17
2023-01-21T03:25:04.322Z,9.70
2023-01-21T03:27:36.073Z,9.37
2023-01-21T03:30:09.250Z,9.97
2023-01-21T03:32:40.650Z,8.87
2023-01-21T03:35:16.783Z,11.03
2023-01-21T03:37:52.949Z,10.53
2023-01-21T03:40:25.439Z,9.43
2023-01-21T03:42:57.090Z,10.30
2023-01-21T03:45:33.513Z,11.13
2023-01-21T03:48:09.878Z,9.80
2023-01-21T03:50:44.386Z,10.20
2023-01-21T03:53:14.796Z,11.53
2023-01-21T03:55:45.028Z,10.37
2023-01-21T03:58:15.247Z,10.17
2023-01-21T04:00:46.827Z,10.57
2023-01-21T04:03:17.186Z,9.40
2023-01-21T04:05:49.776Z,10.80
2023-01-21T04:08:20.004Z,9.17
2023-01-21T04:10:50.269Z,9.80
2023-01-21T04:13:20.556Z,10.93
2023-01-21T04:15:50.821Z,8.90
2023-01-21T04:18:21.076Z,10.30
2023-01-21T04:20:53.975Z,10.63
2023-01-21T04:23:24.232Z,10.87
2023-01-21T04:25:54.764Z,12.97
2023-01-21T04:28:25.062Z,11.47
2023-01-21T04:30:55.348Z,10.53
2023-01-21T04:33:25.686Z,10.67
2023-01-21T04:36:00.489Z,10.30
2023-01-21T04:38:31.040Z,13.10
2023-01-21T04:41:01.307Z,12.83
2023-01-21T04:43:31.738Z,12.70
2023-01-21T04:46:02.111Z,10.03
2023-01-21T04:48:33.338Z,10.70
2023-01-21T04:51:06.597Z,11.40
2023-01-21T04:53:36.911Z,12.80
2023-01-21T04:56:07.391Z,14.37
2023-01-21T04:58:37.630Z,13.93
2023-01-21T05:01:07.954Z,10.60
2023-01-21T05:03:38.227Z,11.77
2023-01-21T05:06:11.213Z,12.30
2023-01-21T05:08:41.461Z,10.80
2023-01-21T05:11:12.072Z,11.37
2023-01-21T05:13:42.340Z,13.63
2023-01-21T05:16:14.461Z,12.37
2023-01-21T05:18:46.707Z,12.07
2023-01-21T05:21:19.769Z,11.50
2023-01-21T05:23:50.035Z,12.43
2023-01-21T05:26:20.291Z,12.67
2023-01-21T05:28:50.669Z,12.93
2023-01-21T05:31:21.068Z,11.70
2023-01-21T05:33:51.423Z,10.97
2023-01-21T05:36:24.249Z,10.93
2023-01-21T05:38:54.497Z,12.27
2023-01-21T05:41:24.849Z,10.40
2023-01-21T05:43:55.130Z,13.43
2023-01-21T05:46:25.476Z,12.73
2023-01-21T05:48:55.784Z,12.37
2023-01-21T05:51:28.744Z,13.53
2023-01-21T05:53:58.975Z,14.53
2023-01-21T05:56:29.222Z,14.17
2023-01-21T05:58:59.493Z,11.20
2023-01-21T06:01:29.805Z,13.77
2023-01-21T06:04:00.066Z,11.60
2023-01-21T06:06:32.957Z,11.20
2023-01-21T06:09:03.193Z,12.83
2023-01-21T06:11:33.474Z,12.03
2023-01-21T06:14:03.709Z,14.23
2023-01-21T06:16:33.949Z,11.67
2023-01-21T06:19:04.210Z,12.47
2023-01-21T06:21:37.010Z,11.27
2023-01-21T06:24:07.745Z,13.73
2023-01-21T06:26:38.016Z,11.30
2023-01-21T06:29:08.247Z,11.67
2023-01-21T06:31:39.550Z,10.83
2023-01-21T06:34:09.878Z,11.40
2023-01-21T06:36:43.200Z,11.83
2023-01-21T06:39:13.563Z,14.00
2023-01-21T06:41:43.861Z,12.27
2023-01-21T06:44:14.219Z,12.40
2023-01-21T06:46:52.197Z,13.13
2023-01-21T06:49:29.906Z,11.43
2023-01-21T06:52:02.742Z,13.70
2023-01-21T06:54:32.985Z,11.97
2023-01-21T06:57:03.259Z,11.70
2023-01-21T06:59:33.526Z,14.33
2023-01-21T07:02:03.994Z,13.93
2023-01-21T07:04:34.301Z,14.77
2023-01-21T07:07:07.481Z,13.50
2023-01-21T07:09:37.790Z,12.00
2023-01-21T07:12:08.253Z,12.43
2023-01-21T07:14:38.480Z,12.97
2023-01-21T07:17:08.908Z,13.73
2023-01-21T07:19:39.182Z,12.97
2023-01-21T07:22:12.033Z,13.37
2023-01-21T07:24:42.418Z,11.70
2023-01-21T07:27:12.723Z,13.37
2023-01-21T07:29:43.388Z,15.20
2023-01-21T07:32:13.840Z,12.20
2023-01-21T07:34:44.682Z,11.33
2023-01-21T07:37:17.589Z,12.77
2023-01-21T07:39:48.034Z,11.33
2023-01-21T07:42:18.295Z,13.33
2023-01-21T07:44:48.569Z,12.80
2023-01-21T07:47:18.793Z,13.00
2023-01-21T07:49:49.225Z,12.00
2023-01-21T07:52:22.072Z,13.87
2023-01-21T07:54:52.395Z,14.03
2023-01-21T07:57:22.675Z,13.47
2023-01-21T07:59:52.955Z,11.67
2023-01-21T08:02:23.332Z,12.70
2023-01-21T08:04:53.680Z,11.73
2023-01-21T08:07:28.717Z,12.70
2023-01-21T08:09:59.034Z,14.27
2023-01-21T08:12:29.277Z,12.33
2023-01-21T08:14:59.522Z,11.57
2023-01-21T08:17:29.851Z,12.23
2023-01-21T08:20:00.148Z,12.40
2023-01-21T08:22:33.005Z,13.67
2023-01-21T08:25:03.255Z,11.40
2023-01-21T08:27:33.742Z,12.20
2023-01-21T08:30:03.939Z,12.30
2023-01-21T08:32:34.335Z,11.83
2023-01-21T08:35:04.580Z,14.27
2023-01-21T08:37:37.430Z,11.60
2023-01-21T08:40:08.441Z,11.27
2023-01-21T08:42:38.681Z,11.93
2023-01-21T08:45:10.095Z,11.83
2023-01-21T08:47:40.327Z,11.80
2023-01-21T08:50:10.867Z,11.30
2023-01-21T08:52:43.697Z,11.10
2023-01-21T08:55:14.012Z,10.60
2023-01-21T08:57:44.285Z,9.93
2023-01-21T09:00:15.663Z,10.63
2023-01-21T09:02:45.926Z,9.23
2023-01-21T09:05:16.427Z,7.47
2023-01-21T09:07:49.651Z,7.50
2023-01-21T09:10:40.126Z,6.70
2023-01-21T09:13:10.847Z,6.20
2023-01-21T09:15:41.671Z,5.77
2023-01-21T09:18:12.282Z,5.63
2023-01-21T09:20:42.932Z,5.03
2023-01-21T09:23:26.989Z,6.80
2023-01-21T09:25:59.006Z,6.63
2023-01-21T09:28:29.235Z,7.30
2023-01-21T09:31:00.690Z,6.73
2023-01-21T09:33:31.708Z,5.20
2023-01-21T09:36:03.178Z,6.57
2023-01-21T09:38:36.009Z,7.17
2023-01-21T09:41:24.435Z,6.27
2023-01-21T09:43:57.733Z,5.90
2023-01-21T09:46:31.491Z,5.00
2023-01-21T09:49:02.251Z,6.40
2023-01-21T09:51:37.305Z,6.37
2023-01-21T09:54:15.859Z,6.50
2023-01-21T09:57:07.344Z,6.67
2023-01-21T09:59:48.183Z,5.73
2023-01-21T10:02:28.433Z,5.97
2023-01-21T10:05:06.756Z,5.67
2023-01-21T10:07:40.642Z,7.17
2023-01-21T10:10:19.895Z,13.32
2023-01-21T10:13:01.886Z,5.30
2023-01-21T10:15:37.771Z,5.03
2023-01-21T10:18:12.034Z,5.13
2023-01-21T10:20:50.799Z,6.30
2023-01-21T10:23:23.992Z,5.63
2023-01-21T10:25:56.775Z,5.87
2023-01-21T10:28:28.442Z,6.03
2023-01-21T10:31:00.328Z,7.17
2023-01-21T10:33:31.651Z,6.43
2023-01-21T10:36:41.056Z,5.70
2023-01-21T10:39:16.196Z,4.73
2023-01-21T10:41:55.953Z,4.90
2023-01-21T10:44:31.164Z,5.70
2023-01-21T10:47:06.297Z,4.87
2023-01-21T10:49:44.195Z,5.10
2023-01-21T10:52:22.083Z,4.90
2023-01-21T10:54:59.993Z,5.37
2023-01-21T10:57:38.725Z,4.67
2023-01-21T11:00:18.923Z,6.33
2023-01-21T11:02:52.218Z,4.70
2023-01-21T11:05:22.551Z,4.97
2023-01-21T11:07:52.869Z,4.80
2023-01-21T11:10:25.373Z,5.70
2023-01-21T11:12:59.677Z,4.60
2023-01-21T11:15:32.644Z,5.35
2023-01-21T11:18:02.870Z,5.47
2023-01-21T11:20:42.061Z,5.13
2023-01-21T11:23:27.789Z,5.50
2023-01-21T11:26:03.993Z,4.20
2023-01-21T11:28:37.164Z,4.00
2023-01-21T11:31:09.043Z,5.10
2023-01-21T11:33:39.701Z,4.27
2023-01-21T11:36:16.569Z,3.97
2023-01-21T11:38:47.426Z,3.77
2023-01-21T11:41:19.137Z,4.07
2023-01-21T11:43:53.570Z,3.47
2023-01-21T11:48:57.216Z,4.17
2023-01-21T11:51:27.819Z,4.97
2023-01-21T11:54:15.986Z,4.77
2023-01-21T11:56:56.576Z,4.87
2023-01-21T11:59:33.975Z,3.40
2023-01-21T12:02:08.969Z,4.27
2023-01-21T12:04:40.027Z,4.50
2023-01-21T12:07:11.359Z,4.83
2023-01-21T12:09:41.805Z,3.97
2023-01-21T12:12:19.421Z,4.67
2023-01-21T12:14:54.850Z,4.00
2023-01-21T12:17:32.922Z,4.10
2023-01-21T12:20:08.324Z,3.80
2023-01-21T12:22:49.006Z,3.97
2023-01-21T12:25:29.099Z,4.13
2023-01-21T12:28:06.982Z,3.73
2023-01-21T12:30:43.833Z,4.03
2023-01-21T12:33:17.675Z,5.13
2023-01-21T12:35:50.590Z,4.50
2023-01-21T12:38:22.772Z,3.63
2023-01-21T12:40:58.635Z,5.27
2023-01-21T12:43:34.926Z,4.70
2023-01-21T12:46:14.540Z,5.07
2023-01-21T12:48:50.859Z,4.37
2023-01-21T12:51:24.530Z,5.67
2023-01-21T12:53:57.597Z,4.95
2023-01-21T12:56:32.029Z,5.60
2023-01-21T13:01:44.990Z,4.87
2023-01-21T13:04:20.898Z,5.50
2023-01-21T13:06:57.698Z,4.67
2023-01-21T13:09:36.565Z,5.23
2023-01-21T13:12:08.025Z,4.87
2023-01-21T13:14:39.770Z,5.43
2023-01-21T13:17:18.989Z,5.80
2023-01-21T13:19:49.226Z,5.83
2023-01-21T13:22:26.198Z,5.03
2023-01-21T13:24:59.660Z,6.27
2023-01-21T13:27:32.940Z,6.33
2023-01-21T13:30:06.842Z,5.43
2023-01-21T13:32:46.009Z,4.45
2023-01-21T13:35:23.764Z,6.23
2023-01-21T13:37:57.140Z,5.67
2023-01-21T13:40:38.666Z,5.27
2023-01-21T13:43:13.963Z,6.13
2023-01-21T13:45:51.570Z,5.93
2023-01-21T13:48:36.012Z,5.07
2023-01-21T13:51:25.874Z,5.35
2023-01-21T13:54:30.092Z,6.43
2023-01-21T13:57:13.273Z,6.30
2023-01-21T13:59:48.512Z,6.03
2023-01-21T14:02:24.918Z,6.17
2023-01-21T14:05:03.843Z,5.37
2023-01-21T14:07:38.387Z,5.30
2023-01-21T14:10:16.201Z,6.37
2023-01-21T14:13:16.795Z,6.30
2023-01-21T14:16:06.503Z,6.17
2023-01-21T14:18:57.224Z,6.27
2023-01-21T14:21:43.884Z,5.87
2023-01-21T14:24:20.421Z,5.50
2023-01-21T14:27:06.234Z,5.83
2023-01-21T14:29:38.989Z,6.13
2023-01-21T14:32:16.043Z,6.80
2023-01-21T14:34:57.136Z,5.07
2023-01-21T14:37:33.611Z,6.73
2023-01-21T14:40:14.226Z,6.37
2023-01-21T14:42:47.017Z,5.87
2023-01-21T14:45:20.395Z,6.53
2023-01-21T14:47:52.844Z,5.47
2023-01-21T14:50:53.977Z,5.87
2023-01-21T14:53:29.071Z,6.57
2023-01-21T14:56:13.501Z,5.80
2023-01-21T14:58:49.176Z,5.93
2023-01-21T15:01:39.627Z,5.07
2023-01-21T15:04:20.458Z,6.53
2023-01-21T15:06:54.112Z,6.33
2023-01-21T15:09:31.313Z,6.55
2023-01-21T15:12:03.144Z,6.07
2023-01-21T15:14:37.229Z,7.20
2023-01-21T15:17:07.749Z,6.72
2023-01-21T15:19:38.819Z,6.67
2023-01-21T15:22:21.071Z,6.07
2023-01-21T15:25:06.136Z,5.77
2023-01-21T15:27:38.988Z,6.90
2023-01-21T15:30:30.423Z,6.80
2023-01-21T15:33:01.954Z,6.90
2023-01-21T15:35:35.763Z,6.83
2023-01-21T15:38:12.972Z,7.68
2023-01-21T15:40:45.925Z,10.23
2023-01-21T15:43:25.955Z,7.27
2023-01-21T15:46:04.357Z,7.33
2023-01-21T15:48:56.410Z,7.63
2023-01-21T15:51:35.745Z,7.43
2023-01-21T15:54:21.307Z,8.40
2023-01-21T15:57:04.233Z,7.37
2023-01-21T15:59:51.013Z,7.17
2023-01-21T16:02:25.269Z,7.77
2023-01-21T16:05:09.872Z,8.48
2023-01-21T16:07:44.413Z,8.13
2023-01-21T16:12:56.266Z,7.13
2023-01-21T16:15:38.555Z,8.80
2023-01-21T16:18:13.845Z,8.33
2023-01-21T16:20:46.220Z,7.87
2023-01-21T16:23:18.457Z,7.43
2023-01-21T16:25:49.802Z,8.43
2023-01-21T16:28:20.989Z,8.10
2023-01-21T16:31:01.176Z,10.50
2023-01-21T16:33:31.545Z,12.03
2023-01-21T16:36:05.743Z,7.93
2023-01-21T16:38:37.038Z,8.00
2023-01-21T16:41:27.973Z,7.93
2023-01-21T16:44:01.677Z,8.07
2023-01-21T16:46:37.624Z,7.60
2023-01-21T16:49:09.806Z,8.03
2023-01-21T16:51:40.661Z,7.50
2023-01-21T16:54:32.025Z,7.63
2023-01-21T16:57:03.617Z,6.93
2023-01-21T16:59:40.531Z,6.43
2023-01-21T17:02:20.410Z,7.10
2023-01-21T17:04:51.036Z,6.90
2023-01-21T17:07:23.724Z,7.37
2023-01-21T17:09:57.491Z,5.70
2023-01-21T17:12:28.960Z,8.23
2023-01-21T17:15:00.663Z,6.67
2023-01-21T17:17:37.805Z,6.30
2023-01-21T17:20:08.821Z,7.23
2023-01-21T17:22:44.061Z,7.23
2023-01-21T17:25:23.384Z,6.83
2023-01-21T17:27:55.546Z,7.67
2023-01-21T17:30:33.457Z,6.63
2023-01-21T17:33:06.413Z,6.23
2023-01-21T17:35:36.604Z,6.90
2023-01-21T17:38:08.098Z,8.00
2023-01-21T17:40:48.678Z,7.30
2023-01-21T17:43:22.882Z,7.73
2023-01-21T17:45:55.960Z,7.18
2023-01-21T17:48:33.347Z,6.97
2023-01-21T17:51:08.010Z,7.50
2023-01-21T17:53:44.692Z,7.87
2023-01-21T17:56:17.647Z,7.37
2023-01-21T17:58:52.493Z,9.33
2023-01-21T18:01:23.376Z,7.93
2023-01-21T18:03:56.261Z,7.27
2023-01-21T18:06:29.773Z,8.07
2023-01-21T18:09:00.446Z,8.67
2023-01-21T18:11:30.651Z,7.57
2023-01-21T18:14:00.848Z,7.87
2023-01-21T18:16:31.687Z,7.37
2023-01-21T18:19:04.589Z,8.70
2023-01-21T18:21:34.807Z,7.50
2023-01-21T18:24:05.118Z,8.87
2023-01-21T18:26:38.378Z,6.67
2023-01-21T18:29:08.760Z,7.70
2023-01-21T18:31:40.306Z,7.60
2023-01-21T18:34:13.446Z,8.03
2023-01-21T18:36:44.194Z,8.93
2023-01-21T18:39:15.564Z,8.67
2023-01-21T18:41:46.006Z,8.40
2023-01-21T18:44:16.442Z,8.37
2023-01-21T18:46:47.911Z,8.50
2023-01-21T18:49:22.999Z,7.97
2023-01-21T18:51:54.219Z,10.87
2023-01-21T18:54:24.527Z,7.60
2023-01-21T18:56:54.731Z,8.00
2023-01-21T18:59:25.190Z,8.07
2023-01-21T19:01:55.489Z,6.20
2023-01-21T19:04:28.575Z,8.53
2023-01-21T19:06:58.823Z,7.80
2023-01-21T19:09:29.373Z,7.67
2023-01-21T19:11:59.649Z,8.97
2023-01-21T19:14:30.011Z,8.20
2023-01-21T19:17:00.253Z,8.00
2023-01-21T19:19:33.226Z,8.63
2023-01-21T19:22:03.458Z,7.70
2023-01-21T19:24:34.232Z,8.33
2023-01-21T19:27:04.481Z,9.33
2023-01-21T19:29:34.677Z,9.10
2023-01-21T19:32:04.935Z,9.37
2023-01-21T19:34:37.810Z,8.43
2023-01-21T19:37:08.337Z,9.70
2023-01-21T19:39:38.544Z,7.67
2023-01-21T19:42:09.038Z,8.93
2023-01-21T19:44:39.451Z,8.37
2023-01-21T19:47:16.925Z,9.23
2023-01-21T19:49:50.888Z,7.73
2023-01-21T19:52:21.133Z,7.07
2023-01-21T19:54:54.035Z,9.17
2023-01-21T19:57:25.333Z,7.95
2023-01-21T19:59:56.364Z,6.67
2023-01-21T20:02:28.021Z,7.30
2023-01-21T20:05:00.875Z,7.77
2023-01-21T20:07:31.106Z,7.17
2023-01-21T20:10:01.338Z,7.37
2023-01-21T20:12:31.535Z,6.63
2023-01-21T20:15:01.814Z,7.10
2023-01-21T20:17:32.054Z,7.27
2023-01-21T20:20:05.167Z,8.07
2023-01-21T20:22:35.330Z,7.73
2023-01-21T20:25:05.655Z,8.13
2023-01-21T20:27:35.987Z,7.07
2023-01-21T20:30:16.003Z,7.77
2023-01-21T20:32:46.996Z,7.67
2023-01-21T20:35:20.624Z,8.00
2023-01-21T20:37:53.283Z,8.27
2023-01-21T20:40:24.659Z,8.27
2023-01-21T20:42:55.448Z,7.43
2023-01-21T20:45:27.342Z,6.67
2023-01-21T20:47:58.348Z,7.17
2023-01-21T20:50:34.648Z,9.03
2023-01-21T20:53:05.435Z,7.23
2023-01-21T20:55:35.716Z,7.37
2023-01-21T20:58:05.933Z,7.57
2023-01-21T21:00:38.075Z,7.73
2023-01-21T21:03:08.362Z,8.27
2023-01-21T21:05:41.313Z,8.30
2023-01-21T21:08:14.456Z,7.23
2023-01-21T21:10:44.735Z,8.13
2023-01-21T21:13:15.597Z,7.67
2023-01-21T21:15:46.806Z,6.63
2023-01-21T21:18:17.214Z,8.43
2023-01-21T21:20:50.025Z,7.27
2023-01-21T21:23:20.235Z,6.90
2023-01-21T21:25:51.467Z,6.50
2023-01-21T21:28:21.872Z,7.13
2023-01-21T21:30:52.150Z,7.97
2023-01-21T21:33:23.977Z,7.27
2023-01-21T21:35:56.823Z,9.60
2023-01-21T21:38:27.106Z,7.77
2023-01-21T21:41:17.377Z,7.33
2023-01-21T21:43:45.143Z,7.07
2023-01-21T21:46:28.692Z,7.70
2023-01-21T21:48:59.228Z,7.07
2023-01-21T21:51:35.265Z,7.03
2023-01-21T21:54:05.580Z,7.53
2023-01-21T21:56:35.855Z,7.13
2023-01-21T21:59:06.492Z,7.13
2023-01-21T22:01:37.451Z,7.37
2023-01-21T22:04:07.986Z,7.10
2023-01-21T22:06:41.063Z,6.30
2023-01-21T22:09:12.095Z,6.83
2023-01-21T22:11:42.311Z,7.77
2023-01-21T22:14:12.521Z,6.97
2023-01-21T22:16:42.977Z,7.03
2023-01-21T22:19:13.274Z,7.27
2023-01-21T22:21:46.250Z,7.87
2023-01-21T22:24:16.629Z,7.00
2023-01-21T22:26:46.832Z,6.07
2023-01-21T22:29:17.023Z,7.80
2023-01-21T22:31:47.277Z,7.60
2023-01-21T22:34:17.746Z,6.43
2023-01-21T22:36:50.710Z,6.73
2023-01-21T22:39:20.911Z,7.87
2023-01-21T22:41:51.136Z,7.23
2023-01-21T22:44:21.380Z,8.70
2023-01-21T22:46:51.613Z,6.77
2023-01-21T22:49:22.137Z,6.47
2023-01-21T22:51:55.164Z,7.23
2023-01-21T22:54:25.518Z,8.10
2023-01-21T22:56:55.904Z,6.63
2023-01-21T22:59:26.131Z,6.63
2023-01-21T23:01:56.349Z,6.80
2023-01-21T23:04:26.603Z,6.93
2023-01-21T23:06:59.565Z,7.40
2023-01-21T23:09:29.862Z,6.67
2023-01-21T23:12:00.295Z,7.83
2023-01-21T23:14:30.533Z,7.07
2023-01-21T23:17:00.728Z,6.17
2023-01-21T23:19:31.022Z,6.60
2023-01-21T23:22:03.799Z,7.67
2023-01-21T23:24:34.203Z,7.77
2023-01-21T23:27:04.410Z,6.80
2023-01-21T23:29:34.649Z,7.03
2023-01-21T23:32:04.990Z,6.70
2023-01-21T23:34:35.256Z,7.57
2023-01-21T23:37:08.064Z,6.30
2023-01-21T23:39:38.275Z,7.80
2023-01-21T23:42:08.535Z,7.63
2023-01-21T23:44:38.739Z,7.53
2023-01-21T23:47:09.538Z,6.97
2023-01-21T23:49:39.732Z,6.97
2023-01-21T23:52:12.800Z,8.70
2023-01-21T23:54:43.379Z,6.20
2023-01-21T23:57:13.996Z,7.03
2023-01-21T23:59:44.205Z,7.50
